Eastmanville, Michigan
Current Conditions -  °F | °C
As of 8:55 AM on Wednesday 28 Jan 2015 (Local Time) from KMKG Reporting Station
Broken Clouds Broken Clouds  
Wind Chill:   Ceiling: 22000
Heat Index: 15°   Visibility: 8mi
Dew Point: 10°   Wind: 7mph
Humidity: 80%   Direction: 140°SE
Pressure: 30.3"   Gusts: NA
Location:  43.0662°N, 85.9564°W
Report Text: KMKG 281355Z 14006KT 8SM BKN220 M09/M12 A3030 RMK AO2 SLP271 T10941122
Loading
Personal Weather Stations






























Interactive Weather Map New forecast layout! Learn more

10-Day Weather Forecast

Advertisements
Track Severe Weather on mobile